sensor_id;sensor_type;location;lat;lon;timestamp;temperature;humidity
76263;DHT22;65080;50.908;6.916;2023-09-30T00:02:01;15.30;75.70
76263;DHT22;65080;50.908;6.916;2023-09-30T00:04:30;15.30;75.70
76263;DHT22;65080;50.908;6.916;2023-09-30T00:06:58;15.30;75.80
76263;DHT22;65080;50.908;6.916;2023-09-30T00:09:26;15.30;75.80
76263;DHT22;65080;50.908;6.916;2023-09-30T00:11:55;15.20;75.70
76263;DHT22;65080;50.908;6.916;2023-09-30T00:14:23;15.10;75.60
76263;DHT22;65080;50.908;6.916;2023-09-30T00:16:53;15.00;75.70
76263;DHT22;65080;50.908;6.916;2023-09-30T00:19:21;15.00;75.80
76263;DHT22;65080;50.908;6.916;2023-09-30T00:21:50;15.00;75.90
76263;DHT22;65080;50.908;6.916;2023-09-30T00:24:18;15.00;75.90
76263;DHT22;65080;50.908;6.916;2023-09-30T00:26:47;15.00;76.60
76263;DHT22;65080;50.908;6.916;2023-09-30T00:29:16;15.00;76.00
76263;DHT22;65080;50.908;6.916;2023-09-30T00:31:44;15.00;75.90
76263;DHT22;65080;50.908;6.916;2023-09-30T00:34:14;15.00;75.90
76263;DHT22;65080;50.908;6.916;2023-09-30T00:36:42;15.00;75.90
76263;DHT22;65080;50.908;6.916;2023-09-30T00:39:11;15.00;75.90
76263;DHT22;65080;50.908;6.916;2023-09-30T00:41:39;15.00;76.00
76263;DHT22;65080;50.908;6.916;2023-09-30T00:44:08;15.00;76.00
76263;DHT22;65080;50.908;6.916;2023-09-30T00:46:37;15.00;76.00
76263;DHT22;65080;50.908;6.916;2023-09-30T00:49:09;15.10;76.10
76263;DHT22;65080;50.908;6.916;2023-09-30T00:51:39;15.10;76.10
76263;DHT22;65080;50.908;6.916;2023-09-30T00:54:08;15.10;76.10
76263;DHT22;65080;50.908;6.916;2023-09-30T00:56:43;15.10;76.00
76263;DHT22;65080;50.908;6.916;2023-09-30T00:59:12;15.10;76.00
76263;DHT22;65080;50.908;6.916;2023-09-30T01:01:41;15.00;75.90
76263;DHT22;65080;50.908;6.916;2023-09-30T01:04:11;15.00;76.00
76263;DHT22;65080;50.908;6.916;2023-09-30T01:06:41;14.90;76.00
76263;DHT22;65080;50.908;6.916;2023-09-30T01:09:09;14.90;76.10
76263;DHT22;65080;50.908;6.916;2023-09-30T01:11:40;14.90;76.10
76263;DHT22;65080;50.908;6.916;2023-09-30T01:14:23;14.90;76.10
76263;DHT22;65080;50.908;6.916;2023-09-30T01:16:51;15.00;76.30
76263;DHT22;65080;50.908;6.916;2023-09-30T01:19:20;15.00;76.20
76263;DHT22;65080;50.908;6.916;2023-09-30T01:21:53;15.00;76.20
76263;DHT22;65080;50.908;6.916;2023-09-30T01:24:23;15.00;76.20
76263;DHT22;65080;50.908;6.916;2023-09-30T01:26:52;15.00;76.10
76263;DHT22;65080;50.908;6.916;2023-09-30T01:29:21;15.00;76.10
76263;DHT22;65080;50.908;6.916;2023-09-30T01:31:49;15.00;76.20
76263;DHT22;65080;50.908;6.916;2023-09-30T01:34:18;15.00;76.30
76263;DHT22;65080;50.908;6.916;2023-09-30T01:36:46;15.00;76.20
76263;DHT22;65080;50.908;6.916;2023-09-30T01:39:16;15.00;76.20
76263;DHT22;65080;50.908;6.916;2023-09-30T01:41:44;14.90;76.00
76263;DHT22;65080;50.908;6.916;2023-09-30T01:44:13;14.90;76.10
76263;DHT22;65080;50.908;6.916;2023-09-30T01:46:41;14.90;76.10
76263;DHT22;65080;50.908;6.916;2023-09-30T01:49:10;14.80;76.10
76263;DHT22;65080;50.908;6.916;2023-09-30T01:51:39;14.80;76.30
76263;DHT22;65080;50.908;6.916;2023-09-30T01:54:07;14.70;76.30
76263;DHT22;65080;50.908;6.916;2023-09-30T01:56:37;14.70;76.30
76263;DHT22;65080;50.908;6.916;2023-09-30T01:59:05;14.80;76.50
76263;DHT22;65080;50.908;6.916;2023-09-30T02:01:33;14.80;76.40
76263;DHT22;65080;50.908;6.916;2023-09-30T02:04:02;14.80;76.50
76263;DHT22;65080;50.908;6.916;2023-09-30T02:06:32;14.80;76.40
76263;DHT22;65080;50.908;6.916;2023-09-30T02:09:01;14.80;76.30
76263;DHT22;65080;50.908;6.916;2023-09-30T02:11:31;14.80;76.20
76263;DHT22;65080;50.908;6.916;2023-09-30T02:14:01;14.80;76.20
76263;DHT22;65080;50.908;6.916;2023-09-30T02:16:30;14.80;76.30
76263;DHT22;65080;50.908;6.916;2023-09-30T02:18:58;14.70;76.30
76263;DHT22;65080;50.908;6.916;2023-09-30T02:21:27;14.70;76.30
76263;DHT22;65080;50.908;6.916;2023-09-30T02:23:55;14.70;76.40
76263;DHT22;65080;50.908;6.916;2023-09-30T02:26:24;14.70;76.20
76263;DHT22;65080;50.908;6.916;2023-09-30T02:28:54;14.70;77.00
76263;DHT22;65080;50.908;6.916;2023-09-30T02:31:24;14.70;76.50
76263;DHT22;65080;50.908;6.916;2023-09-30T02:33:52;14.60;76.30
76263;DHT22;65080;50.908;6.916;2023-09-30T02:36:21;14.60;76.30
76263;DHT22;65080;50.908;6.916;2023-09-30T02:38:49;14.60;76.40
76263;DHT22;65080;50.908;6.916;2023-09-30T02:41:17;14.60;76.40
76263;DHT22;65080;50.908;6.916;2023-09-30T02:43:46;14.60;76.40
76263;DHT22;65080;50.908;6.916;2023-09-30T02:46:14;14.60;76.40
76263;DHT22;65080;50.908;6.916;2023-09-30T02:48:44;14.60;76.40
76263;DHT22;65080;50.908;6.916;2023-09-30T02:51:12;14.60;76.50
76263;DHT22;65080;50.908;6.916;2023-09-30T02:53:42;14.60;76.50
76263;DHT22;65080;50.908;6.916;2023-09-30T02:56:10;14.60;76.40
76263;DHT22;65080;50.908;6.916;2023-09-30T02:58:38;14.50;76.20
76263;DHT22;65080;50.908;6.916;2023-09-30T03:01:07;14.40;76.00
76263;DHT22;65080;50.908;6.916;2023-09-30T03:03:37;14.40;76.30
76263;DHT22;65080;50.908;6.916;2023-09-30T03:06:08;14.30;76.40
76263;DHT22;65080;50.908;6.916;2023-09-30T03:08:37;14.40;76.60
76263;DHT22;65080;50.908;6.916;2023-09-30T03:11:06;14.30;76.50
76263;DHT22;65080;50.908;6.916;2023-09-30T03:13:34;14.30;76.60
76263;DHT22;65080;50.908;6.916;2023-09-30T03:16:03;14.30;76.50
76263;DHT22;65080;50.908;6.916;2023-09-30T03:18:32;14.30;76.50
76263;DHT22;65080;50.908;6.916;2023-09-30T03:21:01;14.40;76.60
76263;DHT22;65080;50.908;6.916;2023-09-30T03:23:37;14.30;76.50
76263;DHT22;65080;50.908;6.916;2023-09-30T03:26:05;14.30;76.40
76263;DHT22;65080;50.908;6.916;2023-09-30T03:28:37;14.30;76.40
76263;DHT22;65080;50.908;6.916;2023-09-30T03:31:06;14.30;76.50
76263;DHT22;65080;50.908;6.916;2023-09-30T03:33:34;14.30;76.40
76263;DHT22;65080;50.908;6.916;2023-09-30T03:36:03;14.30;76.40
76263;DHT22;65080;50.908;6.916;2023-09-30T03:38:31;14.30;76.20
76263;DHT22;65080;50.908;6.916;2023-09-30T03:41:01;14.30;76.30
76263;DHT22;65080;50.908;6.916;2023-09-30T03:43:29;14.20;76.20
76263;DHT22;65080;50.908;6.916;2023-09-30T03:45:58;14.20;76.30
76263;DHT22;65080;50.908;6.916;2023-09-30T03:48:27;14.20;76.40
76263;DHT22;65080;50.908;6.916;2023-09-30T03:50:56;14.20;76.40
76263;DHT22;65080;50.908;6.916;2023-09-30T03:53:24;14.20;76.40
76263;DHT22;65080;50.908;6.916;2023-09-30T03:55:53;14.10;76.20
76263;DHT22;65080;50.908;6.916;2023-09-30T03:58:24;14.10;76.30
76263;DHT22;65080;50.908;6.916;2023-09-30T04:00:52;14.10;76.40
76263;DHT22;65080;50.908;6.916;2023-09-30T04:03:21;14.10;76.30
76263;DHT22;65080;50.908;6.916;2023-09-30T04:05:49;14.10;76.20
76263;DHT22;65080;50.908;6.916;2023-09-30T04:08:18;14.00;76.10
76263;DHT22;65080;50.908;6.916;2023-09-30T04:10:46;14.00;76.20
76263;DHT22;65080;50.908;6.916;2023-09-30T04:13:14;14.00;76.30
76263;DHT22;65080;50.908;6.916;2023-09-30T04:15:45;13.90;76.20
76263;DHT22;65080;50.908;6.916;2023-09-30T04:18:16;13.90;76.30
76263;DHT22;65080;50.908;6.916;2023-09-30T04:20:47;13.90;76.30
76263;DHT22;65080;50.908;6.916;2023-09-30T04:23:15;13.80;76.20
76263;DHT22;65080;50.908;6.916;2023-09-30T04:25:44;13.80;76.20
76263;DHT22;65080;50.908;6.916;2023-09-30T04:28:13;13.80;76.20
76263;DHT22;65080;50.908;6.916;2023-09-30T04:30:44;13.80;76.20
76263;DHT22;65080;50.908;6.916;2023-09-30T04:33:13;13.70;76.10
76263;DHT22;65080;50.908;6.916;2023-09-30T04:35:41;13.70;76.10
76263;DHT22;65080;50.908;6.916;2023-09-30T04:38:10;13.70;76.20
76263;DHT22;65080;50.908;6.916;2023-09-30T04:40:38;13.70;76.20
76263;DHT22;65080;50.908;6.916;2023-09-30T04:43:06;13.70;76.20
76263;DHT22;65080;50.908;6.916;2023-09-30T04:45:35;13.70;76.10
76263;DHT22;65080;50.908;6.916;2023-09-30T04:48:05;13.70;76.10
76263;DHT22;65080;50.908;6.916;2023-09-30T04:50:33;13.70;76.20
76263;DHT22;65080;50.908;6.916;2023-09-30T04:53:01;13.70;76.10
76263;DHT22;65080;50.908;6.916;2023-09-30T04:55:30;13.70;76.20
76263;DHT22;65080;50.908;6.916;2023-09-30T04:57:58;13.60;76.10
76263;DHT22;65080;50.908;6.916;2023-09-30T05:00:27;13.60;76.20
76263;DHT22;65080;50.908;6.916;2023-09-30T05:02:57;13.70;76.30
76263;DHT22;65080;50.908;6.916;2023-09-30T05:05:28;13.60;76.20
76263;DHT22;65080;50.908;6.916;2023-09-30T05:07:57;13.50;76.10
76263;DHT22;65080;50.908;6.916;2023-09-30T05:10:25;13.60;76.30
76263;DHT22;65080;50.908;6.916;2023-09-30T05:12:55;13.50;76.10
76263;DHT22;65080;50.908;6.916;2023-09-30T05:15:24;13.60;76.40
76263;DHT22;65080;50.908;6.916;2023-09-30T05:17:52;13.50;76.10
76263;DHT22;65080;50.908;6.916;2023-09-30T05:20:21;13.50;76.10
76263;DHT22;65080;50.908;6.916;2023-09-30T05:22:51;13.50;76.20
76263;DHT22;65080;50.908;6.916;2023-09-30T05:25:19;13.50;76.20
76263;DHT22;65080;50.908;6.916;2023-09-30T05:27:52;13.50;76.20
76263;DHT22;65080;50.908;6.916;2023-09-30T05:30:21;13.50;76.20
76263;DHT22;65080;50.908;6.916;2023-09-30T05:32:50;13.50;76.20
76263;DHT22;65080;50.908;6.916;2023-09-30T05:35:19;13.50;76.30
76263;DHT22;65080;50.908;6.916;2023-09-30T05:37:50;13.50;76.20
76263;DHT22;65080;50.908;6.916;2023-09-30T05:40:20;13.50;76.20
76263;DHT22;65080;50.908;6.916;2023-09-30T05:42:52;13.50;76.20
76263;DHT22;65080;50.908;6.916;2023-09-30T05:45:23;13.50;76.30
76263;DHT22;65080;50.908;6.916;2023-09-30T05:47:53;13.50;76.20
76263;DHT22;65080;50.908;6.916;2023-09-30T05:50:23;13.40;76.10
76263;DHT22;65080;50.908;6.916;2023-09-30T05:52:56;13.40;76.10
76263;DHT22;65080;50.908;6.916;2023-09-30T05:55:25;13.40;76.20
76263;DHT22;65080;50.908;6.916;2023-09-30T05:57:54;13.40;76.20
76263;DHT22;65080;50.908;6.916;2023-09-30T06:00:23;13.40;76.30
76263;DHT22;65080;50.908;6.916;2023-09-30T06:02:56;13.40;76.30
76263;DHT22;65080;50.908;6.916;2023-09-30T06:05:25;13.50;76.30
76263;DHT22;65080;50.908;6.916;2023-09-30T06:07:59;13.50;76.40
76263;DHT22;65080;50.908;6.916;2023-09-30T06:10:30;13.50;76.30
76263;DHT22;65080;50.908;6.916;2023-09-30T06:12:58;13.50;76.30
76263;DHT22;65080;50.908;6.916;2023-09-30T06:15:27;13.50;76.40
76263;DHT22;65080;50.908;6.916;2023-09-30T06:17:57;13.60;76.40
76263;DHT22;65080;50.908;6.916;2023-09-30T06:20:27;13.50;76.40
76263;DHT22;65080;50.908;6.916;2023-09-30T06:22:59;13.50;76.50
76263;DHT22;65080;50.908;6.916;2023-09-30T06:25:28;13.60;76.60
76263;DHT22;65080;50.908;6.916;2023-09-30T06:27:57;13.60;76.60
76263;DHT22;65080;50.908;6.916;2023-09-30T06:30:26;13.60;76.60
76263;DHT22;65080;50.908;6.916;2023-09-30T06:32:58;13.70;76.70
76263;DHT22;65080;50.908;6.916;2023-09-30T06:35:28;13.70;76.70
76263;DHT22;65080;50.908;6.916;2023-09-30T06:38:03;13.80;76.70
76263;DHT22;65080;50.908;6.916;2023-09-30T06:40:33;13.80;76.70
76263;DHT22;65080;50.908;6.916;2023-09-30T06:43:06;13.80;76.70
76263;DHT22;65080;50.908;6.916;2023-09-30T06:45:36;13.90;76.80
76263;DHT22;65080;50.908;6.916;2023-09-30T06:48:09;14.00;76.90
76263;DHT22;65080;50.908;6.916;2023-09-30T06:50:40;14.00;76.90
76263;DHT22;65080;50.908;6.916;2023-09-30T06:53:12;14.10;77.10
76263;DHT22;65080;50.908;6.916;2023-09-30T06:55:41;14.10;77.00
76263;DHT22;65080;50.908;6.916;2023-09-30T06:58:10;14.20;77.00
76263;DHT22;65080;50.908;6.916;2023-09-30T07:00:38;14.20;77.00
76263;DHT22;65080;50.908;6.916;2023-09-30T07:03:08;14.30;77.20
76263;DHT22;65080;50.908;6.916;2023-09-30T07:05:37;14.30;77.20
76263;DHT22;65080;50.908;6.916;2023-09-30T07:08:05;14.40;77.30
76263;DHT22;65080;50.908;6.916;2023-09-30T07:10:35;14.50;77.40
76263;DHT22;65080;50.908;6.916;2023-09-30T07:13:04;14.60;77.50
76263;DHT22;65080;50.908;6.916;2023-09-30T07:15:33;14.70;77.50
76263;DHT22;65080;50.908;6.916;2023-09-30T07:18:02;14.80;77.50
76263;DHT22;65080;50.908;6.916;2023-09-30T07:20:31;15.00;77.60
76263;DHT22;65080;50.908;6.916;2023-09-30T07:23:00;15.10;77.60
76263;DHT22;65080;50.908;6.916;2023-09-30T07:25:46;15.10;78.30
76263;DHT22;65080;50.908;6.916;2023-09-30T07:28:15;15.20;77.50
76263;DHT22;65080;50.908;6.916;2023-09-30T07:30:44;15.30;77.60
76263;DHT22;65080;50.908;6.916;2023-09-30T07:33:12;15.40;77.70
76263;DHT22;65080;50.908;6.916;2023-09-30T07:35:41;15.40;77.70
76263;DHT22;65080;50.908;6.916;2023-09-30T07:38:09;15.50;77.70
76263;DHT22;65080;50.908;6.916;2023-09-30T07:40:37;15.60;77.80
76263;DHT22;65080;50.908;6.916;2023-09-30T07:43:07;15.60;77.80
76263;DHT22;65080;50.908;6.916;2023-09-30T07:45:36;15.60;77.70
76263;DHT22;65080;50.908;6.916;2023-09-30T07:48:06;15.70;77.80
76263;DHT22;65080;50.908;6.916;2023-09-30T07:50:36;15.70;77.70
76263;DHT22;65080;50.908;6.916;2023-09-30T07:53:04;15.70;77.80
76263;DHT22;65080;50.908;6.916;2023-09-30T07:55:33;15.80;77.80
76263;DHT22;65080;50.908;6.916;2023-09-30T07:58:01;15.80;77.90
76263;DHT22;65080;50.908;6.916;2023-09-30T08:00:32;15.90;78.00
76263;DHT22;65080;50.908;6.916;2023-09-30T08:03:01;15.90;77.90
76263;DHT22;65080;50.908;6.916;2023-09-30T08:05:30;16.00;77.90
76263;DHT22;65080;50.908;6.916;2023-09-30T08:07:58;16.00;77.80
76263;DHT22;65080;50.908;6.916;2023-09-30T08:10:28;16.10;77.90
76263;DHT22;65080;50.908;6.916;2023-09-30T08:12:58;16.10;77.90
76263;DHT22;65080;50.908;6.916;2023-09-30T08:15:30;16.10;77.90
76263;DHT22;65080;50.908;6.916;2023-09-30T08:17:59;16.20;77.90
76263;DHT22;65080;50.908;6.916;2023-09-30T08:20:28;16.20;77.90
76263;DHT22;65080;50.908;6.916;2023-09-30T08:22:56;16.20;78.00
76263;DHT22;65080;50.908;6.916;2023-09-30T08:25:25;16.30;78.10
76263;DHT22;65080;50.908;6.916;2023-09-30T08:27:54;16.30;78.10
76263;DHT22;65080;50.908;6.916;2023-09-30T08:30:22;16.40;78.10
76263;DHT22;65080;50.908;6.916;2023-09-30T08:32:52;16.50;78.10
76263;DHT22;65080;50.908;6.916;2023-09-30T08:35:20;16.60;78.00
76263;DHT22;65080;50.908;6.916;2023-09-30T08:37:48;16.60;77.90
76263;DHT22;65080;50.908;6.916;2023-09-30T08:40:20;16.70;77.90
76263;DHT22;65080;50.908;6.916;2023-09-30T08:42:52;16.80;77.90
76263;DHT22;65080;50.908;6.916;2023-09-30T08:45:21;16.80;77.80
76263;DHT22;65080;50.908;6.916;2023-09-30T08:47:50;16.90;77.80
76263;DHT22;65080;50.908;6.916;2023-09-30T08:50:21;17.00;77.90
76263;DHT22;65080;50.908;6.916;2023-09-30T08:52:50;17.00;77.80
76263;DHT22;65080;50.908;6.916;2023-09-30T08:55:19;17.00;77.60
76263;DHT22;65080;50.908;6.916;2023-09-30T08:57:48;17.10;77.80
76263;DHT22;65080;50.908;6.916;2023-09-30T09:00:19;17.10;77.70
76263;DHT22;65080;50.908;6.916;2023-09-30T09:02:50;17.10;77.70
76263;DHT22;65080;50.908;6.916;2023-09-30T09:05:20;17.20;77.70
76263;DHT22;65080;50.908;6.916;2023-09-30T09:07:49;17.20;77.70
76263;DHT22;65080;50.908;6.916;2023-09-30T09:10:17;17.20;77.70
76263;DHT22;65080;50.908;6.916;2023-09-30T09:12:56;17.20;77.60
76263;DHT22;65080;50.908;6.916;2023-09-30T09:15:25;17.30;77.70
76263;DHT22;65080;50.908;6.916;2023-09-30T09:17:54;17.30;77.60
76263;DHT22;65080;50.908;6.916;2023-09-30T09:20:25;17.30;77.60
76263;DHT22;65080;50.908;6.916;2023-09-30T09:22:54;17.40;77.70
76263;DHT22;65080;50.908;6.916;2023-09-30T09:25:23;17.40;77.50
76263;DHT22;65080;50.908;6.916;2023-09-30T09:27:52;17.50;77.50
76263;DHT22;65080;50.908;6.916;2023-09-30T09:30:23;17.50;77.40
76263;DHT22;65080;50.908;6.916;2023-09-30T09:32:53;17.60;77.30
76263;DHT22;65080;50.908;6.916;2023-09-30T09:35:21;17.60;77.20
76263;DHT22;65080;50.908;6.916;2023-09-30T09:37:56;17.70;77.30
76263;DHT22;65080;50.908;6.916;2023-09-30T09:40:26;17.70;77.10
76263;DHT22;65080;50.908;6.916;2023-09-30T09:42:55;17.80;77.00
76263;DHT22;65080;50.908;6.916;2023-09-30T09:45:25;17.80;76.90
76263;DHT22;65080;50.908;6.916;2023-09-30T09:47:54;17.90;76.90
76263;DHT22;65080;50.908;6.916;2023-09-30T09:50:23;17.90;76.70
76263;DHT22;65080;50.908;6.916;2023-09-30T09:52:53;18.00;76.70
76263;DHT22;65080;50.908;6.916;2023-09-30T09:55:25;18.10;76.60
76263;DHT22;65080;50.908;6.916;2023-09-30T09:57:54;18.10;76.40
76263;DHT22;65080;50.908;6.916;2023-09-30T10:00:24;18.20;76.40
76263;DHT22;65080;50.908;6.916;2023-09-30T10:02:53;18.20;76.30
76263;DHT22;65080;50.908;6.916;2023-09-30T10:05:21;18.30;76.30
76263;DHT22;65080;50.908;6.916;2023-09-30T10:07:52;18.40;76.10
76263;DHT22;65080;50.908;6.916;2023-09-30T10:10:24;18.50;76.00
76263;DHT22;65080;50.908;6.916;2023-09-30T10:12:53;18.60;76.00
76263;DHT22;65080;50.908;6.916;2023-09-30T10:15:39;18.60;75.70
76263;DHT22;65080;50.908;6.916;2023-09-30T10:18:09;18.70;75.60
76263;DHT22;65080;50.908;6.916;2023-09-30T10:20:44;18.70;75.50
76263;DHT22;65080;50.908;6.916;2023-09-30T10:23:25;18.70;75.50
76263;DHT22;65080;50.908;6.916;2023-09-30T10:26:14;18.70;75.40
76263;DHT22;65080;50.908;6.916;2023-09-30T10:28:45;18.80;75.30
76263;DHT22;65080;50.908;6.916;2023-09-30T10:31:16;18.90;75.30
76263;DHT22;65080;50.908;6.916;2023-09-30T10:34:20;18.90;74.90
76263;DHT22;65080;50.908;6.916;2023-09-30T10:36:49;19.00;74.70
76263;DHT22;65080;50.908;6.916;2023-09-30T10:39:55;19.10;74.60
76263;DHT22;65080;50.908;6.916;2023-09-30T10:42:48;19.20;74.30
76263;DHT22;65080;50.908;6.916;2023-09-30T10:45:43;19.30;74.20
76263;DHT22;65080;50.908;6.916;2023-09-30T10:48:35;19.40;74.00
76263;DHT22;65080;50.908;6.916;2023-09-30T10:51:17;19.40;73.70
76263;DHT22;65080;50.908;6.916;2023-09-30T10:53:49;19.40;73.40
76263;DHT22;65080;50.908;6.916;2023-09-30T10:56:19;19.50;73.40
76263;DHT22;65080;50.908;6.916;2023-09-30T10:58:50;19.60;73.30
76263;DHT22;65080;50.908;6.916;2023-09-30T11:01:20;19.60;73.10
76263;DHT22;65080;50.908;6.916;2023-09-30T11:03:55;19.70;73.10
76263;DHT22;65080;50.908;6.916;2023-09-30T11:06:26;19.70;72.90
76263;DHT22;65080;50.908;6.916;2023-09-30T11:08:56;19.80;72.70
76263;DHT22;65080;50.908;6.916;2023-09-30T11:11:48;19.80;72.30
76263;DHT22;65080;50.908;6.916;2023-09-30T11:14:22;19.70;71.60
76263;DHT22;65080;50.908;6.916;2023-09-30T11:16:56;19.70;71.60
76263;DHT22;65080;50.908;6.916;2023-09-30T11:19:27;19.70;71.50
76263;DHT22;65080;50.908;6.916;2023-09-30T11:21:57;19.60;71.30
76263;DHT22;65080;50.908;6.916;2023-09-30T11:24:26;19.60;71.10
76263;DHT22;65080;50.908;6.916;2023-09-30T11:26:56;19.60;70.80
76263;DHT22;65080;50.908;6.916;2023-09-30T11:29:26;19.70;70.80
76263;DHT22;65080;50.908;6.916;2023-09-30T11:31:54;19.70;70.40
76263;DHT22;65080;50.908;6.916;2023-09-30T11:34:31;19.70;70.20
76263;DHT22;65080;50.908;6.916;2023-09-30T11:37:00;19.60;69.90
76263;DHT22;65080;50.908;6.916;2023-09-30T11:39:30;19.70;69.90
76263;DHT22;65080;50.908;6.916;2023-09-30T11:41:59;19.70;69.70
76263;DHT22;65080;50.908;6.916;2023-09-30T11:44:30;19.80;69.40
76263;DHT22;65080;50.908;6.916;2023-09-30T11:46:59;20.00;69.20
76263;DHT22;65080;50.908;6.916;2023-09-30T11:49:33;20.10;68.90
76263;DHT22;65080;50.908;6.916;2023-09-30T11:52:04;20.20;68.70
76263;DHT22;65080;50.908;6.916;2023-09-30T11:54:35;20.30;68.30
76263;DHT22;65080;50.908;6.916;2023-09-30T11:57:07;20.40;68.10
76263;DHT22;65080;50.908;6.916;2023-09-30T11:59:38;20.50;67.80
76263;DHT22;65080;50.908;6.916;2023-09-30T12:02:08;20.60;67.60
76263;DHT22;65080;50.908;6.916;2023-09-30T12:04:42;20.70;67.50
76263;DHT22;65080;50.908;6.916;2023-09-30T12:07:11;20.70;67.20
76263;DHT22;65080;50.908;6.916;2023-09-30T12:09:40;20.80;67.00
76263;DHT22;65080;50.908;6.916;2023-09-30T12:12:09;20.80;66.80
76263;DHT22;65080;50.908;6.916;2023-09-30T12:14:40;20.90;66.70
76263;DHT22;65080;50.908;6.916;2023-09-30T12:17:08;21.00;66.50
76263;DHT22;65080;50.908;6.916;2023-09-30T12:19:40;21.00;67.00
76263;DHT22;65080;50.908;6.916;2023-09-30T12:22:09;21.00;66.10
76263;DHT22;65080;50.908;6.916;2023-09-30T12:24:38;21.10;65.90
76263;DHT22;65080;50.908;6.916;2023-09-30T12:27:08;21.10;65.60
76263;DHT22;65080;50.908;6.916;2023-09-30T12:29:36;21.20;65.50
76263;DHT22;65080;50.908;6.916;2023-09-30T12:32:08;21.10;65.10
76263;DHT22;65080;50.908;6.916;2023-09-30T12:34:37;21.10;64.90
76263;DHT22;65080;50.908;6.916;2023-09-30T12:37:05;21.10;64.90
76263;DHT22;65080;50.908;6.916;2023-09-30T12:39:34;21.10;64.60
76263;DHT22;65080;50.908;6.916;2023-09-30T12:42:04;21.10;64.40
76263;DHT22;65080;50.908;6.916;2023-09-30T12:44:36;21.00;64.20
76263;DHT22;65080;50.908;6.916;2023-09-30T12:47:06;21.10;64.10
76263;DHT22;65080;50.908;6.916;2023-09-30T12:49:34;21.20;64.00
76263;DHT22;65080;50.908;6.916;2023-09-30T12:52:04;21.20;63.60
76263;DHT22;65080;50.908;6.916;2023-09-30T12:54:32;21.30;63.40
76263;DHT22;65080;50.908;6.916;2023-09-30T12:57:01;21.40;63.30
76263;DHT22;65080;50.908;6.916;2023-09-30T12:59:29;21.50;63.00
76263;DHT22;65080;50.908;6.916;2023-09-30T13:01:58;21.60;62.80
76263;DHT22;65080;50.908;6.916;2023-09-30T13:04:27;21.60;62.50
76263;DHT22;65080;50.908;6.916;2023-09-30T13:06:56;21.70;62.30
76263;DHT22;65080;50.908;6.916;2023-09-30T13:09:24;21.70;62.10
76263;DHT22;65080;50.908;6.916;2023-09-30T13:11:53;21.80;61.90
76263;DHT22;65080;50.908;6.916;2023-09-30T13:14:21;21.80;61.70
76263;DHT22;65080;50.908;6.916;2023-09-30T13:16:49;21.70;61.60
76263;DHT22;65080;50.908;6.916;2023-09-30T13:19:18;21.70;61.50
76263;DHT22;65080;50.908;6.916;2023-09-30T13:21:50;21.80;61.60
76263;DHT22;65080;50.908;6.916;2023-09-30T13:24:20;22.00;61.30
76263;DHT22;65080;50.908;6.916;2023-09-30T13:26:49;22.00;61.10
76263;DHT22;65080;50.908;6.916;2023-09-30T13:29:19;22.10;61.10
76263;DHT22;65080;50.908;6.916;2023-09-30T13:31:47;22.30;61.20
76263;DHT22;65080;50.908;6.916;2023-09-30T13:34:16;22.50;60.90
76263;DHT22;65080;50.908;6.916;2023-09-30T13:36:45;22.70;60.70
76263;DHT22;65080;50.908;6.916;2023-09-30T13:39:14;23.00;60.50
76263;DHT22;65080;50.908;6.916;2023-09-30T13:41:44;23.10;60.30
76263;DHT22;65080;50.908;6.916;2023-09-30T13:44:14;23.40;60.10
76263;DHT22;65080;50.908;6.916;2023-09-30T13:46:42;23.60;59.80
76263;DHT22;65080;50.908;6.916;2023-09-30T13:49:11;23.70;59.60
76263;DHT22;65080;50.908;6.916;2023-09-30T13:51:39;23.80;59.50
76263;DHT22;65080;50.908;6.916;2023-09-30T13:54:08;23.90;59.20
76263;DHT22;65080;50.908;6.916;2023-09-30T13:56:37;24.10;58.90
76263;DHT22;65080;50.908;6.916;2023-09-30T13:59:06;24.20;58.50
76263;DHT22;65080;50.908;6.916;2023-09-30T14:01:37;24.30;58.40
76263;DHT22;65080;50.908;6.916;2023-09-30T14:04:09;24.20;58.20
76263;DHT22;65080;50.908;6.916;2023-09-30T14:06:37;24.10;58.10
76263;DHT22;65080;50.908;6.916;2023-09-30T14:09:05;24.00;58.00
76263;DHT22;65080;50.908;6.916;2023-09-30T14:11:56;24.00;57.90
76263;DHT22;65080;50.908;6.916;2023-09-30T14:14:25;23.90;57.80
76263;DHT22;65080;50.908;6.916;2023-09-30T14:16:54;23.80;57.70
76263;DHT22;65080;50.908;6.916;2023-09-30T14:19:22;23.70;57.60
76263;DHT22;65080;50.908;6.916;2023-09-30T14:21:51;23.60;57.40
76263;DHT22;65080;50.908;6.916;2023-09-30T14:24:19;23.60;57.20
76263;DHT22;65080;50.908;6.916;2023-09-30T14:26:47;23.60;57.00
76263;DHT22;65080;50.908;6.916;2023-09-30T14:29:17;23.60;56.80
76263;DHT22;65080;50.908;6.916;2023-09-30T14:31:45;23.60;56.60
76263;DHT22;65080;50.908;6.916;2023-09-30T14:34:14;23.50;56.40
76263;DHT22;65080;50.908;6.916;2023-09-30T14:36:42;23.50;56.40
76263;DHT22;65080;50.908;6.916;2023-09-30T14:39:10;23.50;56.20
76263;DHT22;65080;50.908;6.916;2023-09-30T14:41:41;23.40;56.10
76263;DHT22;65080;50.908;6.916;2023-09-30T14:44:09;23.40;56.10
76263;DHT22;65080;50.908;6.916;2023-09-30T14:46:40;23.30;55.90
76263;DHT22;65080;50.908;6.916;2023-09-30T14:49:09;23.30;55.80
76263;DHT22;65080;50.908;6.916;2023-09-30T14:51:37;23.30;55.80
76263;DHT22;65080;50.908;6.916;2023-09-30T14:54:06;23.20;55.60
76263;DHT22;65080;50.908;6.916;2023-09-30T14:56:34;23.30;55.50
76263;DHT22;65080;50.908;6.916;2023-09-30T14:59:03;23.30;55.50
76263;DHT22;65080;50.908;6.916;2023-09-30T15:01:32;23.30;55.40
76263;DHT22;65080;50.908;6.916;2023-09-30T15:04:03;23.30;55.30
76263;DHT22;65080;50.908;6.916;2023-09-30T15:06:34;23.30;55.10
76263;DHT22;65080;50.908;6.916;2023-09-30T15:09:04;23.40;55.20
76263;DHT22;65080;50.908;6.916;2023-09-30T15:11:32;23.30;55.00
76263;DHT22;65080;50.908;6.916;2023-09-30T15:14:00;23.30;55.00
76263;DHT22;65080;50.908;6.916;2023-09-30T15:16:29;23.20;55.00
76263;DHT22;65080;50.908;6.916;2023-09-30T15:18:58;23.10;54.90
76263;DHT22;65080;50.908;6.916;2023-09-30T15:21:28;23.00;54.90
76263;DHT22;65080;50.908;6.916;2023-09-30T15:23:56;22.90;54.80
76263;DHT22;65080;50.908;6.916;2023-09-30T15:26:26;22.80;54.80
76263;DHT22;65080;50.908;6.916;2023-09-30T15:28:55;22.70;54.80
76263;DHT22;65080;50.908;6.916;2023-09-30T15:31:26;22.70;54.80
76263;DHT22;65080;50.908;6.916;2023-09-30T15:33:55;22.60;54.60
76263;DHT22;65080;50.908;6.916;2023-09-30T15:36:25;22.50;54.60
76263;DHT22;65080;50.908;6.916;2023-09-30T15:38:54;22.40;54.50
76263;DHT22;65080;50.908;6.916;2023-09-30T15:41:23;22.40;54.50
76263;DHT22;65080;50.908;6.916;2023-09-30T15:43:52;22.30;55.10
76263;DHT22;65080;50.908;6.916;2023-09-30T15:46:20;22.20;54.60
76263;DHT22;65080;50.908;6.916;2023-09-30T15:48:49;22.10;54.60